createdAt,value
2018-06-21T00:01:33.011Z,19.00
2018-06-21T00:04:00.431Z,19.10
2018-06-21T00:08:55.003Z,19.10
2018-06-21T00:11:22.285Z,19.00
2018-06-21T00:13:49.609Z,19.00
2018-06-21T00:16:16.978Z,18.90
2018-06-21T00:18:44.272Z,18.90
2018-06-21T00:21:11.557Z,18.90
2018-06-21T00:23:38.847Z,18.90
2018-06-21T00:26:06.185Z,18.90
2018-06-21T00:28:33.458Z,18.90
2018-06-21T00:31:00.762Z,18.90
2018-06-21T00:35:55.342Z,18.90
2018-06-21T00:38:22.675Z,18.90
2018-06-21T00:40:49.942Z,18.80
2018-06-21T00:43:17.255Z,18.90
2018-06-21T00:45:44.531Z,18.80
2018-06-21T00:48:11.841Z,18.80
2018-06-21T00:50:39.149Z,18.80
2018-06-21T00:53:06.440Z,18.80
2018-06-21T00:55:45.219Z,18.80
2018-06-21T00:58:12.548Z,18.70
2018-06-21T01:00:39.862Z,18.70
2018-06-21T01:03:07.146Z,18.70
2018-06-21T01:05:34.426Z,18.70
2018-06-21T01:08:01.681Z,18.70
2018-06-21T01:10:29.037Z,18.70
2018-06-21T01:12:56.306Z,18.70
2018-06-21T01:15:23.585Z,18.60
2018-06-21T01:17:50.880Z,18.60
2018-06-21T01:20:18.276Z,18.50
2018-06-21T01:22:45.596Z,18.50
2018-06-21T01:25:12.923Z,18.40
2018-06-21T01:27:40.243Z,18.40
2018-06-21T01:30:07.513Z,18.40
2018-06-21T01:32:34.992Z,18.40
2018-06-21T01:35:02.285Z,18.40
2018-06-21T01:37:29.647Z,18.40
2018-06-21T01:42:24.381Z,18.30
2018-06-21T01:44:51.741Z,18.30
2018-06-21T01:47:19.074Z,18.30
2018-06-21T01:49:46.378Z,18.30
2018-06-21T01:54:41.000Z,18.20
2018-06-21T01:57:08.309Z,18.20
2018-06-21T01:59:35.620Z,18.20
2018-06-21T02:02:02.944Z,18.20
2018-06-21T02:04:30.272Z,18.20
2018-06-21T02:09:24.832Z,18.10
2018-06-21T02:11:52.121Z,18.10
2018-06-21T02:14:19.406Z,18.10
2018-06-21T02:16:46.724Z,18.10
2018-06-21T02:19:14.012Z,18.10
2018-06-21T02:21:41.308Z,18.00
2018-06-21T02:24:08.605Z,18.00
2018-06-21T02:26:35.880Z,18.00
2018-06-21T02:31:30.456Z,18.00
2018-06-21T02:33:57.712Z,18.00
2018-06-21T02:36:25.009Z,18.00
2018-06-21T02:38:52.252Z,18.00
2018-06-21T02:41:19.586Z,18.00
2018-06-21T02:46:14.106Z,18.00
2018-06-21T02:48:41.424Z,18.00
2018-06-21T02:51:08.684Z,18.00
2018-06-21T02:53:36.004Z,18.00
2018-06-21T02:58:30.657Z,17.90
2018-06-21T03:00:57.944Z,17.90
2018-06-21T03:03:25.254Z,18.00
2018-06-21T03:05:52.573Z,18.00
2018-06-21T03:08:19.920Z,18.00
2018-06-21T03:10:47.255Z,18.00
2018-06-21T03:13:14.576Z,18.00
2018-06-21T03:15:41.866Z,18.00
2018-06-21T03:18:09.192Z,18.00
2018-06-21T03:20:36.529Z,18.00
2018-06-21T03:23:03.884Z,18.10
2018-06-21T03:25:31.212Z,18.10
2018-06-21T03:27:58.536Z,18.10
2018-06-21T03:30:25.872Z,18.10
2018-06-21T03:32:53.312Z,18.10
2018-06-21T03:35:20.644Z,18.10
2018-06-21T03:37:48.005Z,18.10
2018-06-21T03:40:15.334Z,18.10
2018-06-21T03:42:42.720Z,18.10
2018-06-21T03:45:10.086Z,18.10
2018-06-21T03:47:37.405Z,18.10
2018-06-21T03:50:04.740Z,18.10
2018-06-21T03:52:32.109Z,18.10
2018-06-21T03:54:59.520Z,18.10
2018-06-21T03:57:26.875Z,18.10
2018-06-21T03:59:54.200Z,18.10
2018-06-21T04:02:21.510Z,18.10
2018-06-21T04:04:48.836Z,18.20
2018-06-21T04:07:16.148Z,18.20
2018-06-21T04:09:43.553Z,18.20
2018-06-21T04:12:10.856Z,18.20
2018-06-21T04:14:38.136Z,18.20
2018-06-21T04:17:05.469Z,18.20
2018-06-21T04:19:32.787Z,18.20
2018-06-21T04:22:00.209Z,18.20
2018-06-21T04:24:27.514Z,18.20
2018-06-21T04:26:54.864Z,18.30
2018-06-21T04:29:22.281Z,18.30
2018-06-21T04:31:49.605Z,18.30
2018-06-21T04:36:44.232Z,18.50
2018-06-21T04:41:38.888Z,18.60
2018-06-21T04:44:06.192Z,18.70
2018-06-21T04:46:33.489Z,18.80
2018-06-21T04:49:01.125Z,18.80
2018-06-21T04:51:28.485Z,18.80
2018-06-21T04:53:55.799Z,18.80
2018-06-21T04:56:23.147Z,18.80
2018-06-21T04:58:50.504Z,18.80
2018-06-21T05:03:45.116Z,18.90
2018-06-21T05:06:12.408Z,19.00
2018-06-21T05:08:39.658Z,19.10
2018-06-21T05:11:06.936Z,19.10
2018-06-21T05:13:34.212Z,19.20
2018-06-21T05:16:01.533Z,19.30
2018-06-21T05:18:28.785Z,19.40
2018-06-21T05:20:56.032Z,19.60
2018-06-21T05:23:23.348Z,19.80
2018-06-21T05:25:50.733Z,20.00
2018-06-21T05:28:18.060Z,20.20
2018-06-21T05:30:45.426Z,20.40
2018-06-21T05:33:12.720Z,20.60
2018-06-21T05:35:40.007Z,20.80
2018-06-21T05:38:07.368Z,21.00
2018-06-21T05:40:36.576Z,21.20
2018-06-21T05:43:04.344Z,21.30
2018-06-21T05:48:00.600Z,21.50
2018-06-21T05:50:28.975Z,21.60
2018-06-21T05:55:24.357Z,21.80
2018-06-21T05:57:51.669Z,21.80
2018-06-21T06:00:18.957Z,21.90
2018-06-21T06:02:46.308Z,21.90
2018-06-21T06:07:40.872Z,21.90
2018-06-21T06:10:08.223Z,21.90
2018-06-21T06:12:35.477Z,21.90
2018-06-21T06:17:31.265Z,21.90
2018-06-21T06:19:59.024Z,21.90
2018-06-21T06:22:26.500Z,21.90
2018-06-21T06:24:53.879Z,21.90
2018-06-21T06:27:21.174Z,21.80
2018-06-21T06:29:48.465Z,21.80
2018-06-21T06:32:15.868Z,21.80
2018-06-21T06:34:43.264Z,21.80
2018-06-21T06:39:37.888Z,21.80
2018-06-21T06:42:05.320Z,21.80
2018-06-21T06:49:27.187Z,21.80
2018-06-21T06:51:54.550Z,21.80
2018-06-21T06:54:21.900Z,21.90
2018-06-21T06:59:16.424Z,21.90
2018-06-21T07:01:43.740Z,22.00
2018-06-21T07:04:11.038Z,22.00
2018-06-21T07:06:38.349Z,22.00
2018-06-21T07:09:07.916Z,22.00
2018-06-21T07:11:35.196Z,22.00
2018-06-21T07:14:02.528Z,22.00
2018-06-21T07:16:29.779Z,22.00
2018-06-21T07:18:57.064Z,22.00
2018-06-21T07:21:24.348Z,21.90
2018-06-21T07:26:19.402Z,21.90
2018-06-21T07:28:46.724Z,21.90
2018-06-21T07:31:13.999Z,21.90
2018-06-21T07:33:41.329Z,21.90
2018-06-21T07:36:08.587Z,21.90
2018-06-21T07:38:35.885Z,22.00
2018-06-21T07:41:03.140Z,22.00
2018-06-21T07:43:30.473Z,22.00
2018-06-21T07:45:57.792Z,22.00
2018-06-21T07:48:25.076Z,22.00
2018-06-21T07:50:52.662Z,22.00
2018-06-21T07:53:19.932Z,22.10
2018-06-21T07:55:47.232Z,22.10
2018-06-21T07:58:14.552Z,22.10
2018-06-21T08:00:41.815Z,22.10
2018-06-21T08:03:09.080Z,22.10
2018-06-21T08:10:30.909Z,22.20
2018-06-21T08:12:58.274Z,22.20
2018-06-21T08:15:25.905Z,22.20
2018-06-21T08:17:53.163Z,22.20
2018-06-21T08:20:20.436Z,22.30
2018-06-21T08:22:47.720Z,22.30
2018-06-21T08:25:15.092Z,22.30
2018-06-21T08:27:42.376Z,22.30
2018-06-21T08:30:09.637Z,22.30
2018-06-21T08:35:04.249Z,22.30
2018-06-21T08:37:31.565Z,22.30
2018-06-21T08:39:58.878Z,22.30
2018-06-21T08:42:26.153Z,22.30
2018-06-21T08:44:53.573Z,22.20
2018-06-21T08:47:21.313Z,22.20
2018-06-21T08:49:48.644Z,22.20
2018-06-21T08:52:15.917Z,22.20
2018-06-21T08:54:43.216Z,22.20
2018-06-21T08:57:10.500Z,22.20
2018-06-21T08:59:37.817Z,22.30
2018-06-21T09:02:05.152Z,22.30
2018-06-21T09:04:32.471Z,22.30
2018-06-21T09:09:27.052Z,22.40
2018-06-21T09:11:54.372Z,22.50
2018-06-21T09:14:21.722Z,22.50
2018-06-21T09:16:48.996Z,22.60
2018-06-21T09:21:43.552Z,22.60
2018-06-21T09:24:10.959Z,22.70
2018-06-21T09:26:38.237Z,22.70
2018-06-21T09:29:05.869Z,22.70
2018-06-21T09:31:33.144Z,22.80
2018-06-21T09:34:00.446Z,22.80
2018-06-21T09:36:32.221Z,22.80
2018-06-21T09:39:05.252Z,22.90
2018-06-21T09:41:38.332Z,22.90
2018-06-21T09:44:11.192Z,22.90
2018-06-21T09:46:44.214Z,22.90
2018-06-21T09:49:11.476Z,22.90
2018-06-21T09:51:38.763Z,22.90
2018-06-21T09:54:06.038Z,23.00
2018-06-21T09:56:33.288Z,23.00
2018-06-21T09:59:00.609Z,22.90
2018-06-21T10:01:27.880Z,22.90
2018-06-21T10:03:55.268Z,22.90
2018-06-21T10:06:22.577Z,22.90
2018-06-21T10:08:49.896Z,22.90
2018-06-21T10:11:17.173Z,22.90
2018-06-21T10:13:44.453Z,22.90
2018-06-21T10:16:11.724Z,22.90
2018-06-21T10:18:39.052Z,23.00
2018-06-21T10:21:06.333Z,23.00
2018-06-21T10:23:33.683Z,23.00
2018-06-21T10:26:00.976Z,23.10
2018-06-21T10:28:28.320Z,23.00
2018-06-21T10:30:55.620Z,23.00
2018-06-21T10:33:22.888Z,23.00
2018-06-21T10:35:50.196Z,23.00
2018-06-21T10:38:17.533Z,23.00
2018-06-21T10:40:44.868Z,23.00
2018-06-21T10:43:12.168Z,23.00
2018-06-21T10:48:06.756Z,23.00
2018-06-21T10:50:34.043Z,22.90
2018-06-21T10:53:01.361Z,23.00
2018-06-21T10:55:28.661Z,22.90
2018-06-21T10:57:55.920Z,22.90
2018-06-21T11:00:23.196Z,23.00
2018-06-21T11:02:50.476Z,23.10
2018-06-21T11:05:17.726Z,23.10
2018-06-21T11:07:45.053Z,23.20
2018-06-21T11:10:12.304Z,23.30
2018-06-21T11:17:34.236Z,23.40
2018-06-21T11:20:01.526Z,23.50
2018-06-21T11:22:28.857Z,23.50
2018-06-21T11:24:56.144Z,23.50
2018-06-21T11:27:23.460Z,23.40
2018-06-21T11:32:18.220Z,23.40
2018-06-21T11:34:45.519Z,23.30
2018-06-21T11:37:12.892Z,23.20
2018-06-21T11:39:40.169Z,23.20
2018-06-21T11:42:07.461Z,23.20
2018-06-21T11:44:34.728Z,23.10
2018-06-21T11:49:29.280Z,22.70
2018-06-21T11:51:56.528Z,22.50
2018-06-21T11:59:18.425Z,21.90
2018-06-21T12:04:12.957Z,21.60
2018-06-21T12:09:08.529Z,21.60
2018-06-21T12:11:35.881Z,21.60
2018-06-21T12:14:03.261Z,21.50
2018-06-21T12:16:30.519Z,21.60
2018-06-21T12:21:25.083Z,21.50
2018-06-21T12:23:52.429Z,21.50
2018-06-21T12:28:47.048Z,21.50
2018-06-21T12:31:14.343Z,21.50
2018-06-21T12:33:41.732Z,21.50
2018-06-21T12:36:09.040Z,21.50
2018-06-21T12:38:36.342Z,21.50
2018-06-21T12:41:03.636Z,21.50
2018-06-21T12:43:30.977Z,21.40
2018-06-21T12:45:58.356Z,21.30
2018-06-21T12:48:25.696Z,21.20
2018-06-21T12:50:52.996Z,21.10
2018-06-21T12:53:20.347Z,21.00
2018-06-21T12:55:47.684Z,20.90
2018-06-21T12:58:15.086Z,20.80
2018-06-21T13:00:42.385Z,20.70
2018-06-21T13:03:09.664Z,20.60
2018-06-21T13:05:37.089Z,20.50
2018-06-21T13:08:04.382Z,20.40
2018-06-21T13:10:43.052Z,20.40
2018-06-21T13:13:17.656Z,20.30
2018-06-21T13:15:45.017Z,20.30
2018-06-21T13:18:12.300Z,20.20
2018-06-21T13:20:39.616Z,20.10
2018-06-21T13:23:06.952Z,20.10
2018-06-21T13:25:34.263Z,20.10
2018-06-21T13:28:01.589Z,20.00
2018-06-21T13:30:28.912Z,20.00
2018-06-21T13:32:56.215Z,20.00
2018-06-21T13:35:23.524Z,20.00
2018-06-21T13:37:50.840Z,20.00
2018-06-21T13:40:18.145Z,20.00
2018-06-21T13:42:45.479Z,20.10
2018-06-21T13:45:12.804Z,20.10
2018-06-21T13:47:40.121Z,20.20
2018-06-21T13:50:07.489Z,20.40
2018-06-21T13:52:34.784Z,20.50
2018-06-21T13:55:02.184Z,20.70
2018-06-21T13:57:29.485Z,20.80
2018-06-21T13:59:56.828Z,21.00
2018-06-21T14:02:24.113Z,21.00
2018-06-21T14:04:51.516Z,21.00
2018-06-21T14:07:18.997Z,21.10
2018-06-21T14:09:46.304Z,21.20
2018-06-21T14:12:13.648Z,21.20
2018-06-21T14:14:40.938Z,21.20
2018-06-21T14:17:08.254Z,21.20
2018-06-21T14:19:35.606Z,21.30
2018-06-21T14:22:03.090Z,21.30
2018-06-21T14:24:30.605Z,21.40
2018-06-21T14:26:57.941Z,21.40
2018-06-21T14:29:25.249Z,21.40
2018-06-21T14:31:52.608Z,21.40
2018-06-21T14:34:19.892Z,21.50
2018-06-21T14:36:47.144Z,21.50
2018-06-21T14:39:14.424Z,21.50
2018-06-21T14:41:41.821Z,21.50
2018-06-21T14:46:36.365Z,21.60
2018-06-21T14:49:03.962Z,21.60
2018-06-21T14:51:31.240Z,21.60
2018-06-21T14:53:58.529Z,21.60
2018-06-21T14:56:25.796Z,21.60
2018-06-21T14:58:53.144Z,21.70
2018-06-21T15:01:20.500Z,21.70
2018-06-21T15:03:47.792Z,21.70
2018-06-21T15:06:15.129Z,21.80
2018-06-21T15:08:42.409Z,21.80
2018-06-21T15:11:09.724Z,21.80
2018-06-21T15:13:37.088Z,21.80
2018-06-21T15:16:04.412Z,21.70
2018-06-21T15:18:31.754Z,21.70
2018-06-21T15:20:59.127Z,21.60
2018-06-21T15:23:26.462Z,21.60
2018-06-21T15:25:53.764Z,21.60
2018-06-21T15:28:21.052Z,21.70
2018-06-21T15:30:48.393Z,21.70
2018-06-21T15:33:15.653Z,21.70
2018-06-21T15:35:42.968Z,21.70
2018-06-21T15:38:10.309Z,21.70
2018-06-21T15:40:37.657Z,21.70
2018-06-21T15:43:05.092Z,21.60
2018-06-21T15:45:32.410Z,21.50
2018-06-21T15:47:59.724Z,21.40
2018-06-21T15:50:27.087Z,21.20
2018-06-21T15:52:54.396Z,21.10
2018-06-21T15:55:21.724Z,21.00
2018-06-21T15:57:49.021Z,21.00
2018-06-21T16:00:16.320Z,20.90
2018-06-21T16:02:43.652Z,20.80
2018-06-21T16:05:10.984Z,20.70
2018-06-21T16:07:38.364Z,20.70
2018-06-21T16:10:05.888Z,20.80
2018-06-21T16:12:34.832Z,20.80
2018-06-21T16:15:02.309Z,20.90
2018-06-21T16:17:29.888Z,21.00
2018-06-21T16:22:24.488Z,21.00
2018-06-21T16:24:51.728Z,21.10
2018-06-21T16:27:19.084Z,21.10
2018-06-21T16:29:46.528Z,21.10
2018-06-21T16:34:42.098Z,21.10
2018-06-21T16:37:09.445Z,21.20
2018-06-21T16:42:04.216Z,21.30
2018-06-21T16:44:31.561Z,21.30
2018-06-21T16:46:58.843Z,21.40
2018-06-21T16:49:26.317Z,21.40
2018-06-21T16:51:53.640Z,21.40
2018-06-21T16:54:21.072Z,21.50
2018-06-21T16:56:48.417Z,21.50
2018-06-21T16:59:15.804Z,21.50
2018-06-21T17:01:43.141Z,21.50
2018-06-21T17:04:10.541Z,21.40
2018-06-21T17:06:38.000Z,21.40
2018-06-21T17:09:06.735Z,21.40
2018-06-21T17:11:34.073Z,21.40
2018-06-21T17:14:01.380Z,21.30
2018-06-21T17:16:28.733Z,21.30
2018-06-21T17:18:56.040Z,21.20
2018-06-21T17:21:23.344Z,21.20
2018-06-21T17:23:50.677Z,21.10
2018-06-21T17:26:18.053Z,21.00
2018-06-21T17:28:45.361Z,21.00
2018-06-21T17:31:12.692Z,20.90
2018-06-21T17:33:40.068Z,20.90
2018-06-21T17:36:07.398Z,20.90
2018-06-21T17:38:34.720Z,20.90
2018-06-21T17:41:02.054Z,20.90
2018-06-21T17:43:29.424Z,20.90
2018-06-21T17:45:56.733Z,20.90
2018-06-21T17:48:24.046Z,20.80
2018-06-21T17:53:18.634Z,20.70
2018-06-21T17:55:45.984Z,20.70
2018-06-21T17:58:13.311Z,20.60
2018-06-21T18:00:40.730Z,20.60
2018-06-21T18:03:08.072Z,20.50
2018-06-21T18:05:35.369Z,20.40
2018-06-21T18:08:02.923Z,20.40
2018-06-21T18:10:30.223Z,20.40
2018-06-21T18:12:57.533Z,20.40
2018-06-21T18:15:24.861Z,20.30
2018-06-21T18:17:52.153Z,20.30
2018-06-21T18:20:19.502Z,20.20
2018-06-21T18:22:46.861Z,20.10
2018-06-21T18:25:14.181Z,20.10
2018-06-21T18:27:41.548Z,20.10
2018-06-21T18:30:08.868Z,20.00
2018-06-21T18:32:36.221Z,20.00
2018-06-21T18:35:03.804Z,20.00
2018-06-21T18:37:31.119Z,19.90
2018-06-21T18:39:58.621Z,19.90
2018-06-21T18:42:25.941Z,19.90
2018-06-21T18:47:20.614Z,19.80
2018-06-21T18:49:47.885Z,19.70
2018-06-21T18:52:15.172Z,19.60
2018-06-21T18:54:42.560Z,19.60
2018-06-21T18:57:09.916Z,19.50
2018-06-21T18:59:37.225Z,19.50
2018-06-21T19:02:04.501Z,19.40
2018-06-21T19:04:31.900Z,19.30
2018-06-21T19:07:04.916Z,19.20
2018-06-21T19:09:37.958Z,19.10
2018-06-21T19:12:07.407Z,19.00
2018-06-21T19:14:34.690Z,18.90
2018-06-21T19:17:02.000Z,18.80
2018-06-21T19:19:29.291Z,18.70
2018-06-21T19:21:56.685Z,18.60
2018-06-21T19:24:24.000Z,18.50
2018-06-21T19:29:18.561Z,18.40
2018-06-21T19:31:45.964Z,18.30
2018-06-21T19:34:13.369Z,18.30
2018-06-21T19:39:09.109Z,18.10
2018-06-21T19:41:37.087Z,18.10
2018-06-21T19:44:04.655Z,18.10
2018-06-21T19:46:32.076Z,18.00
2018-06-21T19:48:59.452Z,18.00
2018-06-21T19:51:26.712Z,18.00
2018-06-21T19:53:54.009Z,17.90
2018-06-21T19:56:21.464Z,17.80
2018-06-21T19:58:48.876Z,17.80
2018-06-21T20:01:16.551Z,17.70
2018-06-21T20:03:43.933Z,17.70
2018-06-21T20:08:38.540Z,17.60
2018-06-21T20:11:11.512Z,17.60
2018-06-21T20:13:45.090Z,17.50
2018-06-21T20:16:12.715Z,17.50
2018-06-21T20:18:40.037Z,17.50
2018-06-21T20:21:11.338Z,17.50
2018-06-21T20:23:39.428Z,17.50
2018-06-21T20:26:06.733Z,17.40
2018-06-21T20:28:34.168Z,17.40
2018-06-21T20:31:01.525Z,17.40
2018-06-21T20:33:28.845Z,17.40
2018-06-21T20:35:56.658Z,17.30
2018-06-21T20:38:23.956Z,17.30
2018-06-21T20:40:51.408Z,17.30
2018-06-21T20:43:18.734Z,17.30
2018-06-21T20:45:46.072Z,17.20
2018-06-21T20:50:40.667Z,17.10
2018-06-21T20:53:08.069Z,17.00
2018-06-21T20:55:35.385Z,17.00
2018-06-21T20:58:02.741Z,17.00
2018-06-21T21:00:30.109Z,17.00
2018-06-21T21:02:57.444Z,17.00
2018-06-21T21:05:24.803Z,16.90
2018-06-21T21:07:52.112Z,16.90
2018-06-21T21:10:19.512Z,16.90
2018-06-21T21:12:46.829Z,16.90
2018-06-21T21:17:42.092Z,16.70
2018-06-21T21:20:09.604Z,16.60
2018-06-21T21:22:38.174Z,16.70
2018-06-21T21:25:05.570Z,16.70
2018-06-21T21:27:32.840Z,16.60
2018-06-21T21:30:00.275Z,16.60
2018-06-21T21:32:27.784Z,16.60
2018-06-21T21:34:56.371Z,16.50
2018-06-21T21:37:23.824Z,16.50
2018-06-21T21:39:56.625Z,16.50
2018-06-21T21:42:24.413Z,16.50
2018-06-21T21:44:51.733Z,16.40
2018-06-21T21:49:46.477Z,16.40
2018-06-21T21:52:13.788Z,16.30
2018-06-21T21:54:41.056Z,16.30
2018-06-21T21:57:08.317Z,16.30
2018-06-21T21:59:35.605Z,16.30
2018-06-21T22:02:03.349Z,16.20
2018-06-21T22:04:30.673Z,16.20
2018-06-21T22:06:58.037Z,16.10
2018-06-21T22:09:25.336Z,16.10
2018-06-21T22:11:52.602Z,16.10
2018-06-21T22:14:19.901Z,16.00
2018-06-21T22:16:47.168Z,16.00
2018-06-21T22:19:14.432Z,16.00
2018-06-21T22:21:41.830Z,15.90
2018-06-21T22:24:09.116Z,16.00
2018-06-21T22:26:36.492Z,16.00
2018-06-21T22:29:03.832Z,16.00
2018-06-21T22:31:31.144Z,16.00
2018-06-21T22:33:58.436Z,15.90
2018-06-21T22:36:25.729Z,15.90
2018-06-21T22:38:52.990Z,15.80
2018-06-21T22:41:20.298Z,15.80
2018-06-21T22:43:47.601Z,15.80
2018-06-21T22:46:14.904Z,15.70
2018-06-21T22:51:09.500Z,15.70
2018-06-21T22:53:36.808Z,15.60
2018-06-21T22:56:04.121Z,15.60
2018-06-21T22:58:31.413Z,15.50
2018-06-21T23:00:58.664Z,15.50
2018-06-21T23:03:25.956Z,15.50
2018-06-21T23:05:53.236Z,15.40
2018-06-21T23:08:20.593Z,15.40
2018-06-21T23:10:47.917Z,15.30
2018-06-21T23:13:15.217Z,15.30
2018-06-21T23:15:42.537Z,15.30
2018-06-21T23:18:09.941Z,15.20
2018-06-21T23:20:37.241Z,15.20
2018-06-21T23:23:04.604Z,15.20
2018-06-21T23:27:59.213Z,15.10
2018-06-21T23:30:26.509Z,15.10
2018-06-21T23:37:48.468Z,15.00
2018-06-21T23:40:15.800Z,15.00
2018-06-21T23:42:43.089Z,15.00
2018-06-21T23:45:10.385Z,15.00
2018-06-21T23:47:37.721Z,15.00
2018-06-21T23:50:05.021Z,15.00
2018-06-21T23:52:32.357Z,15.00
2018-06-21T23:54:59.670Z,14.90
2018-06-21T23:59:54.279Z,14.90
